Time;durP1;ratioP1;P1;durP2;ratioP2;P2;SDS_P1;SDS_P2;PMS_P1;PMS_P2;Temp;Humidity;BMP_temperature;BMP_pressure;BME280_temperature;BME280_humidity;BME280_pressure;Samples;Min_cycle;Max_cycle;Signal;HPM_P1;HPM_P2
2021/01/22 00:01:37;;;;;;;10.20;9.80;;;11.90;99.90;;;;;;4916259;29;20462;-75
2021/01/22 05:30:31;;;;;;;9.83;9.53;;;11.00;99.90;;;;;;5939372;23;20414;-74
2021/01/22 05:33:15;;;;;;;9.70;9.30;;;11.10;99.90;;;;;;4927533;29;20473;-73
2021/01/22 05:35:41;;;;;;;10.03;9.53;;;11.10;99.90;;;;;;4932165;29;20492;-72
2021/01/22 05:38:08;;;;;;;9.47;9.10;;;11.10;99.90;;;;;;4932558;29;20454;-72
2021/01/22 05:40:34;;;;;;;9.70;9.40;;;11.10;99.90;;;;;;4932346;29;20485;-72
2021/01/22 05:43:00;;;;;;;9.33;8.93;;;11.10;99.90;;;;;;4932086;29;20489;-72
2021/01/22 05:45:41;;;;;;;9.70;9.40;;;11.10;99.90;;;;;;4932021;29;20962;-73
2021/01/22 05:48:17;;;;;;;9.97;9.67;;;11.00;99.90;;;;;;4932339;29;20461;-73
2021/01/22 05:50:45;;;;;;;10.23;9.83;;;11.00;99.90;;;;;;4925879;29;20850;-73
2021/01/22 05:53:12;;;;;;;10.20;9.90;;;11.10;99.90;;;;;;4920532;29;20551;-73
2021/01/22 05:55:38;;;;;;;9.97;9.60;;;11.10;99.90;;;;;;4913583;29;20815;-75
2021/01/22 05:58:04;;;;;;;10.00;9.63;;;11.00;99.90;;;;;;4913241;29;20465;-75
2021/01/22 06:00:31;;;;;;;9.53;9.23;;;11.00;99.90;;;;;;4913425;29;20473;-74
2021/01/22 06:02:58;;;;;;;9.30;9.00;;;11.10;99.90;;;;;;4913066;29;20561;-74
2021/01/22 06:05:26;;;;;;;9.53;9.13;;;11.20;99.90;;;;;;4913320;29;20835;-73
2021/01/22 06:08:07;;;;;;;10.00;9.40;;;11.10;99.90;;;;;;4913224;29;20462;-74
2021/01/22 06:10:38;;;;;;;10.10;9.60;;;11.20;99.90;;;;;;4913724;29;20875;-73
2021/01/22 06:13:04;;;;;;;9.90;9.50;;;11.30;99.90;;;;;;4915349;29;20493;-74
2021/01/22 06:15:33;;;;;;;10.07;9.73;;;11.20;99.90;;;;;;4917018;29;20458;-74
2021/01/22 06:18:01;;;;;;;9.87;9.53;;;11.20;99.90;;;;;;4917165;29;20457;-74
2021/01/22 06:20:29;;;;;;;9.90;9.50;;;11.20;99.90;;;;;;4916895;29;21007;-74
2021/01/22 06:23:11;;;;;;;10.10;9.80;;;11.20;99.90;;;;;;4916899;29;20481;-74
2021/01/22 06:25:38;;;;;;;9.90;9.20;;;11.20;99.90;;;;;;4914507;29;20469;-74
2021/01/22 06:28:05;;;;;;;9.90;9.60;;;11.20;99.90;;;;;;4917144;29;20458;-74
2021/01/22 06:30:33;;;;;;;9.90;9.50;;;11.20;99.90;;;;;;4916486;29;20474;-75
2021/01/22 06:33:04;;;;;;;9.80;9.50;;;11.20;99.90;;;;;;4916768;29;20450;-74
2021/01/22 06:35:32;;;;;;;9.70;9.40;;;11.20;99.90;;;;;;4916942;29;20476;-74
2021/01/22 06:37:59;;;;;;;15.20;9.97;;;11.20;99.90;;;;;;4916359;29;20526;-74
2021/01/22 06:40:26;;;;;;;9.83;9.53;;;11.20;99.90;;;;;;4916766;29;20826;-74
2021/01/22 06:42:53;;;;;;;10.07;9.57;;;11.20;99.90;;;;;;4916709;29;20481;-74
2021/01/22 06:45:21;;;;;;;9.70;9.40;;;11.20;99.90;;;;;;4916898;29;20450;-73
2021/01/22 06:48:01;;;;;;;10.10;9.80;;;11.20;99.90;;;;;;4916629;29;20454;-73
2021/01/22 06:50:27;;;;;;;10.23;9.70;;;11.20;99.90;;;;;;4916671;29;20458;-74
2021/01/22 06:53:04;;;;;;;9.50;9.20;;;11.20;99.90;;;;;;4916393;29;20879;-75
2021/01/22 06:55:30;;;;;;;9.87;9.57;;;11.10;99.90;;;;;;4916463;29;20458;-72
2021/01/22 06:58:24;;;;;;;9.40;9.10;;;11.20;99.90;;;;;;4916272;29;20454;-73
2021/01/22 07:00:52;;;;;;;9.57;9.17;;;11.10;99.90;;;;;;4916627;29;20542;-74
2021/01/22 07:03:47;;;;;;;9.40;9.00;;;11.10;99.90;;;;;;4916392;29;20489;-73
2021/01/22 07:06:53;;;;;;;9.63;9.13;;;11.00;99.90;;;;;;4916123;29;20458;-73
2021/01/22 07:09:19;;;;;;;10.57;10.07;;;11.00;99.90;;;;;;4821047;29;20486;-73
2021/01/22 07:11:56;;;;;;;9.63;9.10;;;11.00;99.90;;;;;;4900147;29;20537;-73
2021/01/22 07:14:33;;;;;;;9.60;9.10;;;10.90;99.90;;;;;;4916074;29;20450;-74
2021/01/22 07:17:02;;;;;;;9.10;8.90;;;10.90;99.90;;;;;;4915973;29;20488;-74
2021/01/22 07:19:30;;;;;;;9.20;8.70;;;10.90;99.90;;;;;;4915689;29;20540;-74
2021/01/22 07:21:58;;;;;;;9.37;8.93;;;10.90;99.90;;;;;;4915815;29;20473;-74
2021/01/22 07:24:25;;;;;;;11.00;8.70;;;10.90;99.90;;;;;;4915425;29;20497;-74
2021/01/22 07:26:54;;;;;;;9.27;8.90;;;10.80;99.90;;;;;;4916003;29;20834;-74
2021/01/22 07:29:24;;;;;;;10.17;9.80;;;10.90;99.90;;;;;;4916049;29;20533;-74
2021/01/22 07:31:56;;;;;;;9.50;8.70;;;10.90;99.90;;;;;;4915697;29;20501;-74
2021/01/22 07:34:48;;;;;;;9.53;9.20;;;10.90;99.90;;;;;;4915767;29;20514;-73
2021/01/22 07:37:17;;;;;;;9.77;9.37;;;11.00;99.90;;;;;;4915664;29;20454;-74
2021/01/22 07:39:45;;;;;;;9.60;9.30;;;11.40;99.90;;;;;;4915471;29;21130;-75
2021/01/22 07:42:13;;;;;;;9.80;9.40;;;11.60;99.90;;;;;;4915484;29;20466;-74
2021/01/22 07:44:41;;;;;;;9.33;8.93;;;11.80;99.90;;;;;;4915143;29;20497;-75
2021/01/22 07:47:09;;;;;;;10.00;9.60;;;11.90;99.90;;;;;;4915267;29;20482;-73
2021/01/22 07:49:35;;;;;;;9.73;9.13;;;12.10;99.70;;;;;;4915264;29;20557;-73
2021/01/22 07:52:03;;;;;;;10.00;9.50;;;12.30;99.40;;;;;;4914907;29;20462;-74
2021/01/22 07:54:40;;;;;;;9.60;9.30;;;12.50;98.80;;;;;;4914984;29;20558;-74
2021/01/22 07:57:13;;;;;;;10.03;9.60;;;12.60;98.50;;;;;;4915196;29;20548;-74
2021/01/22 07:59:40;;;;;;;11.13;10.40;;;12.70;98.30;;;;;;4914954;29;20451;-74
2021/01/22 08:02:11;;;;;;;10.97;10.47;;;12.80;98.00;;;;;;4913407;29;20517;-73
2021/01/22 08:04:38;;;;;;;9.60;9.30;;;12.80;98.00;;;;;;4915202;29;20975;-74
2021/01/22 08:07:05;;;;;;;10.67;10.27;;;13.10;97.60;;;;;;4915056;29;20826;-74
2021/01/22 08:09:31;;;;;;;10.90;10.40;;;13.30;97.60;;;;;;4914971;29;20454;-74
2021/01/22 08:12:07;;;;;;;10.97;10.47;;;13.50;97.10;;;;;;4914846;29;20768;-74
2021/01/22 08:14:34;;;;;;;10.60;10.20;;;13.70;96.40;;;;;;4915082;29;20492;-74
2021/01/22 08:17:02;;;;;;;10.23;9.80;;;14.00;96.00;;;;;;4914728;29;20454;-74
2021/01/22 08:19:29;;;;;;;10.83;10.13;;;14.00;95.90;;;;;;4914641;29;20450;-74
2021/01/22 08:21:56;;;;;;;10.30;9.70;;;14.10;95.60;;;;;;4914638;29;20960;-75
2021/01/22 08:24:24;;;;;;;10.20;9.90;;;14.40;95.50;;;;;;4914796;29;20498;-75
2021/01/22 08:26:59;;;;;;;10.10;9.50;;;14.70;94.90;;;;;;4914840;29;20454;-75
2021/01/22 08:29:27;;;;;;;10.17;9.77;;;14.60;94.50;;;;;;4914406;29;21054;-75
2021/01/22 08:31:53;;;;;;;9.20;8.90;;;14.80;94.70;;;;;;4914502;29;20486;-74
2021/01/22 08:34:21;;;;;;;10.10;9.80;;;14.80;94.30;;;;;;4914870;29;20976;-74
2021/01/22 08:36:48;;;;;;;9.40;9.10;;;15.20;94.10;;;;;;4914035;29;20465;-75
2021/01/22 08:39:14;;;;;;;10.07;9.77;;;15.10;93.90;;;;;;4914281;29;20458;-74
2021/01/22 08:41:41;;;;;;;11.03;10.57;;;14.80;94.10;;;;;;4914535;29;20477;-74
2021/01/22 08:44:07;;;;;;;10.70;10.20;;;15.10;94.10;;;;;;4914457;29;20494;-74
2021/01/22 08:46:45;;;;;;;10.57;10.17;;;15.10;93.70;;;;;;4914546;29;20837;-73
2021/01/22 08:49:12;;;;;;;10.40;10.10;;;15.10;93.60;;;;;;4914231;29;20450;-75
2021/01/22 08:51:39;;;;;;;10.60;10.30;;;15.60;93.40;;;;;;4914398;29;20454;-74
2021/01/22 08:54:06;;;;;;;10.10;9.70;;;16.20;92.00;;;;;;4914540;29;20546;-75
2021/01/22 08:56:33;;;;;;;10.57;10.00;;;16.80;91.10;;;;;;4914310;29;20509;-74
2021/01/22 08:59:05;;;;;;;11.13;10.60;;;17.20;90.40;;;;;;4913988;29;20454;-75
2021/01/22 09:01:56;;;;;;;10.73;10.20;;;17.50;89.10;;;;;;4914095;29;20518;-74
2021/01/22 09:04:28;;;;;;;9.80;9.30;;;17.50;88.60;;;;;;4914131;29;20544;-75
2021/01/22 09:06:56;;;;;;;10.40;9.90;;;17.10;88.90;;;;;;4913920;29;20458;-74
2021/01/22 09:09:38;;;;;;;9.60;9.30;;;16.70;89.40;;;;;;4914164;29;20477;-74
2021/01/22 09:12:15;;;;;;;9.93;9.53;;;17.00;89.40;;;;;;4911051;29;20500;-75
2021/01/22 09:14:50;;;;;;;10.87;10.47;;;16.70;89.80;;;;;;4913933;29;21002;-75
2021/01/22 09:17:24;;;;;;;9.10;8.87;;;16.60;90.10;;;;;;4913918;29;20458;-74
2021/01/22 09:19:58;;;;;;;9.57;9.27;;;16.40;90.20;;;;;;4914235;29;20479;-74
2021/01/22 09:22:25;;;;;;;10.30;9.90;;;15.80;90.70;;;;;;4913839;29;20554;-75
2021/01/22 09:24:51;;;;;;;9.70;9.40;;;15.10;91.70;;;;;;4913979;29;20494;-75
2021/01/22 09:27:17;;;;;;;10.53;10.13;;;15.20;91.90;;;;;;4913789;29;20461;-74
2021/01/22 09:29:43;;;;;;;9.67;9.20;;;15.00;92.10;;;;;;4913654;29;20471;-74
2021/01/22 09:32:11;;;;;;;9.93;9.33;;;15.10;91.90;;;;;;4913398;29;21000;-74
2021/01/22 09:34:37;;;;;;;10.00;9.60;;;15.00;92.10;;;;;;4913680;29;20831;-74
2021/01/22 09:37:04;;;;;;;9.60;9.30;;;15.20;92.10;;;;;;4913503;29;20566;-74
2021/01/22 09:39:30;;;;;;;9.80;9.50;;;15.60;91.40;;;;;;4913548;29;20459;-74
2021/01/22 09:41:56;;;;;;;9.90;9.30;;;15.80;91.10;;;;;;4913385;29;20465;-74
2021/01/22 09:44:22;;;;;;;11.03;10.63;;;15.90;91.00;;;;;;4913568;29;20490;-74
2021/01/22 09:46:48;;;;;;;12.60;12.00;;;16.10;90.90;;;;;;4913475;29;20963;-74
2021/01/22 09:49:15;;;;;;;10.90;10.50;;;16.40;90.10;;;;;;4913183;29;20528;-74
2021/01/22 09:51:41;;;;;;;10.50;10.10;;;16.40;90.60;;;;;;4913258;29;20458;-74
2021/01/22 09:54:09;;;;;;;10.77;10.37;;;16.80;89.20;;;;;;4913107;29;20481;-74
2021/01/22 09:56:35;;;;;;;10.60;10.20;;;17.10;88.10;;;;;;4913646;29;20469;-72
2021/01/22 09:59:05;;;;;;;10.50;10.10;;;17.50;88.00;;;;;;4913423;29;20450;-73
2021/01/22 10:01:31;;;;;;;11.13;10.37;;;18.40;85.00;;;;;;4913182;29;20544;-73
2021/01/22 10:03:57;;;;;;;10.80;10.20;;;18.00;84.50;;;;;;4913210;29;20498;-72
2021/01/22 10:06:24;;;;;;;10.00;9.70;;;17.00;86.50;;;;;;4913395;29;20458;-72
2021/01/22 10:08:51;;;;;;;10.47;9.73;;;16.40;88.80;;;;;;4913587;29;20478;-73
2021/01/22 10:11:17;;;;;;;9.97;9.47;;;16.30;90.00;;;;;;4913189;29;20458;-75
2021/01/22 10:13:43;;;;;;;10.50;9.90;;;16.10;90.20;;;;;;4913187;29;20607;-74
2021/01/22 10:16:09;;;;;;;10.13;9.73;;;15.90;90.50;;;;;;4913301;29;20470;-75
2021/01/22 10:18:35;;;;;;;10.10;9.70;;;16.60;89.40;;;;;;4913546;29;20513;-72
2021/01/22 10:21:01;;;;;;;10.13;9.70;;;17.10;87.50;;;;;;4913105;29;20949;-73
2021/01/22 10:23:28;;;;;;;9.83;9.53;;;17.10;87.60;;;;;;4913064;29;20494;-72
2021/01/22 10:25:55;;;;;;;9.93;9.27;;;16.80;87.70;;;;;;4912979;29;20466;-73
2021/01/22 10:28:21;;;;;;;10.83;10.23;;;16.60;87.90;;;;;;4913470;29;20450;-73
2021/01/22 10:30:49;;;;;;;11.03;10.63;;;16.10;89.10;;;;;;4912774;29;20820;-73
2021/01/22 10:33:15;;;;;;;9.87;9.50;;;16.00;90.10;;;;;;4913133;29;20461;-73
2021/01/22 10:35:41;;;;;;;9.60;9.00;;;15.90;90.40;;;;;;4913070;29;20466;-73
2021/01/22 10:38:07;;;;;;;10.70;10.20;;;15.60;90.70;;;;;;4913220;29;20475;-73
2021/01/22 10:40:34;;;;;;;12.50;11.63;;;15.30;91.50;;;;;;4913207;29;20817;-73
2021/01/22 10:43:00;;;;;;;10.07;9.67;;;15.50;91.20;;;;;;4913089;29;21147;-72
2021/01/22 10:45:26;;;;;;;9.77;9.27;;;15.90;90.90;;;;;;4913034;29;20502;-74
2021/01/22 10:47:53;;;;;;;10.80;10.40;;;15.90;90.90;;;;;;4913408;29;20484;-72
2021/01/22 10:50:19;;;;;;;10.43;9.97;;;16.50;90.30;;;;;;4913409;29;20450;-72
2021/01/22 10:52:45;;;;;;;10.60;10.20;;;17.00;88.40;;;;;;4912973;29;20477;-72
2021/01/22 10:55:12;;;;;;;10.27;9.73;;;17.60;86.70;;;;;;4913000;29;20455;-72
2021/01/22 10:57:39;;;;;;;10.40;10.10;;;17.60;86.10;;;;;;4913293;29;20509;-72
2021/01/22 11:00:07;;;;;;;10.67;10.27;;;17.50;85.80;;;;;;4916486;29;20450;-73
2021/01/22 11:02:33;;;;;;;10.80;10.30;;;18.30;84.50;;;;;;4916564;29;20454;-74
2021/01/22 11:04:59;;;;;;;17.63;12.67;;;18.40;83.60;;;;;;4916325;29;20490;-73
2021/01/22 11:07:25;;;;;;;11.33;10.83;;;18.50;83.10;;;;;;4916395;29;20473;-73
2021/01/22 11:09:51;;;;;;;10.47;10.03;;;17.80;83.90;;;;;;4916673;29;20458;-75
2021/01/22 11:12:17;;;;;;;11.17;10.53;;;16.80;87.30;;;;;;4916518;29;20831;-74
2021/01/22 11:14:46;;;;;;;10.60;10.10;;;16.80;88.30;;;;;;4916080;29;20871;-72
2021/01/22 11:17:13;;;;;;;10.77;10.27;;;16.70;88.60;;;;;;4916132;29;20466;-73
2021/01/22 11:23:03;;;;;;;10.27;9.87;;;16.20;90.00;;;;;;4910985;29;20431;-73
2021/01/22 11:25:30;;;;;;;10.60;9.97;;;16.00;90.00;;;;;;4915543;29;20596;-73
2021/01/22 11:27:56;;;;;;;10.87;10.17;;;15.90;90.40;;;;;;4915830;29;20482;-72
2021/01/22 11:30:23;;;;;;;10.53;10.13;;;15.60;90.70;;;;;;4916045;29;20489;-73
2021/01/22 11:32:49;;;;;;;9.90;9.50;;;15.40;91.20;;;;;;4915439;29;20482;-73
2021/01/22 11:35:16;;;;;;;9.80;9.30;;;15.50;91.00;;;;;;4915304;29;20593;-73
2021/01/22 11:37:44;;;;;;;9.70;9.40;;;15.30;91.20;;;;;;4916001;29;20732;-73
2021/01/22 11:40:11;;;;;;;9.83;9.53;;;15.30;91.40;;;;;;4916127;29;20961;-74
2021/01/22 11:42:38;;;;;;;10.10;9.80;;;15.70;91.00;;;;;;4916950;29;20515;-74
2021/01/22 11:45:06;;;;;;;10.80;10.30;;;17.00;89.10;;;;;;4916568;29;20843;-74
2021/01/22 11:47:33;;;;;;;10.73;10.33;;;18.40;85.10;;;;;;4916572;29;20455;-74
2021/01/22 11:49:59;;;;;;;10.37;9.97;;;18.90;82.70;;;;;;4916510;29;20498;-74
2021/01/22 11:52:25;;;;;;;10.50;10.20;;;18.40;82.90;;;;;;4916477;29;20568;-74
2021/01/22 11:54:51;;;;;;;11.70;11.20;;;18.40;83.20;;;;;;4916773;29;20478;-74
2021/01/22 11:57:18;;;;;;;10.30;10.00;;;18.30;82.60;;;;;;4916537;29;20458;-74
2021/01/22 11:59:44;;;;;;;10.03;9.70;;;17.50;84.20;;;;;;4916290;29;20455;-74
2021/01/22 12:02:10;;;;;;;10.10;9.70;;;16.90;85.90;;;;;;4916384;29;20454;-73
2021/01/22 12:04:37;;;;;;;10.03;9.43;;;16.40;86.50;;;;;;4916197;29;20486;-73
2021/01/22 12:07:03;;;;;;;11.20;10.40;;;15.90;87.90;;;;;;4916277;29;20486;-73
2021/01/22 12:09:29;;;;;;;10.03;9.60;;;15.70;88.60;;;;;;4915628;29;20825;-74
2021/01/22 12:11:55;;;;;;;9.50;9.20;;;15.70;88.30;;;;;;4915747;29;20454;-74
2021/01/22 12:14:22;;;;;;;10.10;9.20;;;15.70;87.90;;;;;;4916299;29;20455;-74
2021/01/22 12:16:48;;;;;;;10.67;9.17;;;15.80;87.80;;;;;;4916010;29;20462;-74
2021/01/22 12:19:14;;;;;;;10.07;9.77;;;15.70;87.10;;;;;;4916038;29;20462;-73
2021/01/22 12:21:41;;;;;;;9.83;9.53;;;15.60;87.10;;;;;;4915909;29;20502;-73
2021/01/22 12:24:08;;;;;;;9.00;8.63;;;15.60;87.70;;;;;;4916034;29;20497;-73
2021/01/22 12:26:34;;;;;;;9.27;8.87;;;15.70;86.70;;;;;;4916050;29;20454;-73
2021/01/22 12:29:00;;;;;;;9.57;9.27;;;15.80;86.40;;;;;;4915843;29;20466;-73
2021/01/22 12:31:26;;;;;;;9.60;9.30;;;16.00;85.70;;;;;;4914170;29;20506;-73
2021/01/22 12:33:53;;;;;;;9.90;9.60;;;16.30;85.20;;;;;;4915811;29;20474;-74
2021/01/22 12:36:19;;;;;;;10.30;9.70;;;16.50;84.50;;;;;;4915905;29;20507;-74
2021/01/22 12:38:46;;;;;;;9.90;9.60;;;16.80;83.50;;;;;;4915656;29;20462;-74
2021/01/22 12:41:12;;;;;;;9.83;9.53;;;16.80;82.90;;;;;;4896843;29;20519;-73
2021/01/22 12:43:39;;;;;;;10.77;10.37;;;17.10;81.90;;;;;;4896785;29;20487;-73
2021/01/22 12:46:05;;;;;;;9.90;9.60;;;17.60;80.70;;;;;;4896759;29;20841;-72
2021/01/22 12:48:31;;;;;;;10.13;9.63;;;17.60;78.80;;;;;;4906011;29;20502;-73
2021/01/22 12:50:58;;;;;;;9.93;9.63;;;17.30;79.60;;;;;;4915532;29;20454;-72
2021/01/22 12:53:24;;;;;;;10.20;9.70;;;17.10;80.00;;;;;;4915416;29;20522;-73
2021/01/22 12:55:51;;;;;;;9.87;9.57;;;17.20;80.70;;;;;;4915420;29;20457;-72
2021/01/22 12:58:17;;;;;;;9.57;9.10;;;17.10;80.20;;;;;;4915112;29;20457;-72
2021/01/22 13:00:43;;;;;;;10.13;9.73;;;16.90;80.60;;;;;;4915099;29;20455;-72
2021/01/22 13:03:10;;;;;;;9.90;9.50;;;16.80;81.00;;;;;;4915183;29;20454;-73
2021/01/22 13:05:36;;;;;;;9.33;8.93;;;16.80;81.00;;;;;;4915289;29;20896;-73
2021/01/22 13:08:03;;;;;;;9.50;9.20;;;16.60;81.60;;;;;;4915451;29;20786;-73
2021/01/22 13:10:29;;;;;;;9.97;9.47;;;16.60;82.00;;;;;;4914876;29;20446;-73
2021/01/22 13:12:56;;;;;;;10.10;9.47;;;16.80;82.20;;;;;;4914922;29;20470;-73
2021/01/22 13:15:22;;;;;;;9.70;9.30;;;16.40;82.00;;;;;;4915073;29;20462;-73
2021/01/22 13:17:49;;;;;;;9.60;9.30;;;16.40;82.70;;;;;;4915162;29;20462;-72
2021/01/22 13:20:15;;;;;;;12.67;11.37;;;16.20;83.20;;;;;;4915035;29;20469;-72
2021/01/22 13:22:41;;;;;;;11.03;10.67;;;16.20;83.10;;;;;;4914675;29;20451;-72
2021/01/22 13:25:08;;;;;;;11.53;10.90;;;16.10;83.40;;;;;;4911235;29;20489;-73
2021/01/22 13:27:34;;;;;;;10.20;9.87;;;16.10;83.80;;;;;;4914620;29;20459;-72
2021/01/22 13:30:01;;;;;;;10.13;9.83;;;16.10;83.50;;;;;;4913877;29;20820;-73
2021/01/22 13:32:31;;;;;;;9.97;9.67;;;16.10;83.60;;;;;;4913914;29;20493;-73
2021/01/22 13:34:57;;;;;;;10.63;10.13;;;16.30;83.70;;;;;;4914326;29;20568;-73
2021/01/22 13:37:23;;;;;;;10.70;10.30;;;16.30;83.60;;;;;;4914692;29;20454;-73
2021/01/22 13:39:50;;;;;;;10.50;10.10;;;16.50;82.80;;;;;;4914334;29;20451;-72
2021/01/22 13:42:16;;;;;;;10.87;10.43;;;16.80;82.80;;;;;;4914366;29;21024;-73
2021/01/22 13:44:42;;;;;;;10.53;9.90;;;16.80;81.60;;;;;;4914440;29;20490;-74
2021/01/22 13:47:09;;;;;;;10.70;10.40;;;17.00;82.20;;;;;;4914715;29;20446;-74
2021/01/22 13:49:35;;;;;;;10.97;10.50;;;17.00;82.30;;;;;;4914652;29;20454;-73
2021/01/22 13:52:02;;;;;;;11.90;11.30;;;16.70;85.90;;;;;;4914540;29;20454;-74
2021/01/22 13:54:28;;;;;;;12.83;12.20;;;15.80;91.70;;;;;;4914685;29;20446;-73
2021/01/22 13:56:54;;;;;;;11.90;11.20;;;15.10;93.80;;;;;;4914599;29;20463;-73
2021/01/22 13:59:20;;;;;;;13.50;12.70;;;14.40;96.00;;;;;;4914663;29;20467;-73
2021/01/22 14:01:49;;;;;;;11.37;10.67;;;13.70;97.70;;;;;;4912511;29;20465;-73
2021/01/22 14:04:16;;;;;;;11.80;11.27;;;13.30;99.60;;;;;;4913724;29;20525;-73
2021/01/22 14:06:43;;;;;;;10.93;10.13;;;12.70;99.90;;;;;;4913786;29;20834;-73
2021/01/22 14:09:09;;;;;;;11.93;11.23;;;12.50;99.90;;;;;;4914045;29;20465;-73
2021/01/22 14:11:35;;;;;;;11.60;10.80;;;12.30;99.90;;;;;;4914196;29;20521;-73
2021/01/22 14:14:01;;;;;;;10.70;10.20;;;12.20;99.90;;;;;;4913727;29;20975;-73
2021/01/22 14:16:27;;;;;;;12.23;11.53;;;11.60;99.90;;;;;;4913794;29;20463;-73
2021/01/22 14:18:53;;;;;;;11.40;10.57;;;11.10;99.90;;;;;;4913881;29;20466;-72
2021/01/22 14:21:20;;;;;;;11.20;10.70;;;10.90;99.90;;;;;;4913897;29;20963;-73
2021/01/22 14:23:47;;;;;;;10.97;10.23;;;10.70;99.90;;;;;;4913283;29;20485;-73
2021/01/22 14:26:13;;;;;;;11.50;10.70;;;10.40;99.90;;;;;;4913706;29;20447;-73
2021/01/22 14:28:39;;;;;;;12.27;11.47;;;10.00;99.90;;;;;;4913718;29;20443;-73
2021/01/22 14:31:05;;;;;;;13.70;12.93;;;9.90;99.90;;;;;;4913825;29;20488;-72
2021/01/22 14:33:32;;;;;;;13.60;12.90;;;9.50;99.90;;;;;;4915343;29;20450;-72
2021/01/22 14:35:58;;;;;;;15.57;14.97;;;9.20;99.90;;;;;;4917913;29;20456;-72
2021/01/22 14:38:25;;;;;;;15.37;14.67;;;9.00;99.90;;;;;;4917697;29;20462;-71
2021/01/22 14:40:51;;;;;;;15.10;14.40;;;8.70;99.90;;;;;;4917881;29;20936;-73
2021/01/22 14:43:17;;;;;;;13.80;13.20;;;8.60;99.90;;;;;;4917867;29;20451;-73
2021/01/22 14:45:43;;;;;;;15.60;15.00;;;8.40;99.90;;;;;;4917637;29;20486;-73
2021/01/22 14:48:10;;;;;;;16.37;15.47;;;8.40;99.90;;;;;;4917825;29;20806;-73
2021/01/22 14:50:36;;;;;;;16.10;15.40;;;8.40;99.90;;;;;;4917964;29;20963;-73
2021/01/22 14:53:03;;;;;;;16.60;15.83;;;8.40;99.90;;;;;;4917912;29;20461;-73
2021/01/22 14:55:30;;;;;;;17.87;16.97;;;8.10;99.90;;;;;;4917616;29;20450;-72
2021/01/22 14:57:56;;;;;;;16.80;16.00;;;8.00;99.90;;;;;;4917736;29;20852;-73
2021/01/22 15:00:22;;;;;;;17.73;16.90;;;7.80;99.90;;;;;;4917720;29;20450;-72
2021/01/22 15:02:48;;;;;;;15.83;15.10;;;7.80;99.90;;;;;;4917682;29;20462;-73
2021/01/22 15:05:16;;;;;;;17.17;16.47;;;7.80;99.90;;;;;;4913965;29;20500;-73
2021/01/22 15:07:42;;;;;;;18.43;17.37;;;7.70;99.90;;;;;;4917465;29;20549;-73
2021/01/22 15:10:09;;;;;;;18.67;17.67;;;7.70;99.90;;;;;;4917294;29;20458;-73
2021/01/22 15:12:37;;;;;;;19.17;18.07;;;7.70;99.90;;;;;;4916537;29;20501;-73
2021/01/22 15:15:04;;;;;;;19.30;18.37;;;7.70;99.90;;;;;;4916734;29;20447;-74
2021/01/22 15:17:31;;;;;;;19.63;18.30;;;7.70;99.90;;;;;;4916901;29;20469;-74
2021/01/22 15:19:57;;;;;;;17.03;16.23;;;7.70;99.90;;;;;;4916504;29;20477;-75
2021/01/22 15:22:23;;;;;;;16.90;16.10;;;7.70;99.90;;;;;;4916768;29;20454;-74
2021/01/22 15:24:49;;;;;;;16.93;16.10;;;7.60;99.90;;;;;;4916481;29;20482;-75
2021/01/22 15:27:15;;;;;;;19.77;18.50;;;7.60;99.90;;;;;;4914696;29;20450;-75
2021/01/22 15:29:42;;;;;;;16.67;15.73;;;7.60;99.90;;;;;;4916370;29;20486;-74
2021/01/22 15:32:08;;;;;;;18.20;17.10;;;7.50;99.90;;;;;;4915638;29;20490;-74
2021/01/22 15:34:35;;;;;;;18.93;17.80;;;7.70;99.90;;;;;;4914685;29;20451;-75
2021/01/22 15:37:01;;;;;;;18.13;17.33;;;7.70;99.90;;;;;;4916241;29;20454;-75
2021/01/22 15:39:27;;;;;;;20.50;19.10;;;7.60;99.90;;;;;;4916350;29;20513;-75
2021/01/22 15:41:53;;;;;;;25.23;24.03;;;7.50;99.90;;;;;;4916194;29;20454;-72
2021/01/22 15:44:20;;;;;;;28.73;27.20;;;7.50;99.90;;;;;;4916023;29;20486;-73
2021/01/22 15:46:47;;;;;;;29.20;27.77;;;7.50;99.90;;;;;;4916076;29;20462;-72
2021/01/22 15:49:13;;;;;;;31.30;29.60;;;7.40;99.90;;;;;;4915913;29;20458;-72
2021/01/22 15:51:39;;;;;;;29.67;28.27;;;7.50;99.90;;;;;;4916161;29;20968;-72
2021/01/22 15:54:05;;;;;;;32.10;30.40;;;7.50;99.90;;;;;;4916054;29;20870;-71
2021/01/22 15:56:32;;;;;;;31.80;30.20;;;7.40;99.90;;;;;;4916177;29;20481;-73
2021/01/22 16:02:27;;;;;;;33.77;31.90;;;7.10;99.90;;;;;;4915840;29;20421;-73
2021/01/22 16:04:53;;;;;;;34.60;32.80;;;7.10;99.90;;;;;;4916385;29;20999;-74
2021/01/22 16:07:20;;;;;;;37.00;34.90;;;7.00;99.90;;;;;;4918512;29;20462;-74
2021/01/22 16:09:46;;;;;;;34.50;32.80;;;6.90;99.90;;;;;;4916901;29;20605;-75
2021/01/22 16:12:12;;;;;;;35.70;33.73;;;6.90;99.90;;;;;;4916138;29;21177;-76
2021/01/22 16:14:38;;;;;;;35.07;33.27;;;6.80;99.90;;;;;;4916193;29;20464;-76
2021/01/22 16:17:04;;;;;;;36.07;34.17;;;6.70;99.90;;;;;;4916376;29;20517;-76
2021/01/22 16:19:31;;;;;;;37.63;35.27;;;6.70;99.90;;;;;;4915997;29;20457;-76
2021/01/22 16:21:57;;;;;;;36.27;34.03;;;6.70;99.90;;;;;;4915904;29;20461;-76
2021/01/22 16:24:24;;;;;;;37.90;35.97;;;6.70;99.90;;;;;;4915804;29;20493;-76
2021/01/22 16:26:50;;;;;;;39.23;36.93;;;6.70;99.90;;;;;;4916183;29;20462;-75
2021/01/22 16:29:16;;;;;;;41.17;37.50;;;6.60;99.90;;;;;;4915656;29;20952;-75
2021/01/22 16:31:42;;;;;;;37.57;35.20;;;6.70;99.90;;;;;;4915622;29;20733;-75
2021/01/22 16:34:08;;;;;;;38.27;35.97;;;6.70;99.90;;;;;;4915827;29;20454;-76
2021/01/22 16:36:35;;;;;;;38.43;36.20;;;6.70;99.90;;;;;;4915908;29;20454;-76
2021/01/22 16:39:02;;;;;;;38.20;35.70;;;6.70;99.90;;;;;;4915678;29;20457;-76
2021/01/22 16:41:28;;;;;;;36.50;34.50;;;6.70;99.90;;;;;;4915630;29;20490;-76
2021/01/22 16:43:54;;;;;;;38.87;36.77;;;6.70;99.90;;;;;;4915457;29;20541;-76
2021/01/22 16:46:21;;;;;;;37.77;35.63;;;6.70;99.90;;;;;;4915895;29;20486;-76
2021/01/22 16:48:47;;;;;;;38.23;35.83;;;6.80;99.90;;;;;;4915394;29;20505;-76
2021/01/22 16:51:13;;;;;;;35.67;33.37;;;6.70;99.90;;;;;;4915294;29;20454;-75
2021/01/22 16:53:41;;;;;;;35.53;33.43;;;6.80;99.90;;;;;;4915526;29;20821;-75
2021/01/22 16:56:07;;;;;;;37.90;35.53;;;6.70;99.90;;;;;;4915101;29;20458;-75
2021/01/22 16:58:33;;;;;;;35.53;33.03;;;6.70;99.90;;;;;;4915471;29;20521;-76
2021/01/22 17:01:00;;;;;;;33.50;31.40;;;6.80;99.90;;;;;;4915233;29;20485;-75
2021/01/22 17:03:26;;;;;;;33.33;31.37;;;6.80;99.90;;;;;;4915245;29;20471;-76
2021/01/22 17:05:52;;;;;;;30.03;28.23;;;6.80;99.90;;;;;;4915224;29;20493;-76
2021/01/22 17:08:18;;;;;;;30.30;28.60;;;6.80;99.90;;;;;;4915164;29;20470;-76
2021/01/22 17:10:45;;;;;;;29.70;28.10;;;6.70;99.90;;;;;;4914535;29;20466;-76
2021/01/22 17:13:11;;;;;;;29.80;28.10;;;6.70;99.90;;;;;;4915024;29;20834;-76
2021/01/22 17:15:37;;;;;;;28.50;26.93;;;6.70;99.90;;;;;;4915156;29;20462;-76
2021/01/22 17:18:04;;;;;;;29.77;27.80;;;6.60;99.90;;;;;;4915127;29;20461;-76
2021/01/22 17:20:30;;;;;;;28.43;26.73;;;6.70;99.90;;;;;;4914972;29;20454;-76
2021/01/22 17:22:57;;;;;;;29.43;27.70;;;6.70;99.90;;;;;;4914957;29;20459;-76
2021/01/22 17:25:23;;;;;;;28.10;26.20;;;6.70;99.90;;;;;;4914912;29;20498;-76
2021/01/22 17:27:50;;;;;;;27.90;26.40;;;6.80;99.90;;;;;;4915031;29;20461;-76
2021/01/22 17:30:17;;;;;;;28.63;27.13;;;6.70;99.90;;;;;;4914360;29;20494;-76
2021/01/22 17:32:43;;;;;;;28.70;27.40;;;6.80;99.90;;;;;;4914607;29;20630;-76
2021/01/22 17:35:10;;;;;;;29.37;27.80;;;6.80;99.90;;;;;;4914802;29;20446;-77
2021/01/22 17:37:36;;;;;;;29.50;28.10;;;6.80;99.90;;;;;;4915072;29;20465;-77
2021/01/22 17:40:04;;;;;;;31.10;29.07;;;6.80;99.90;;;;;;4914851;29;20458;-76
2021/01/22 17:42:31;;;;;;;29.43;28.03;;;6.80;99.90;;;;;;4914776;29;20462;-77
2021/01/22 17:45:00;;;;;;;29.20;27.60;;;6.70;99.90;;;;;;4914633;29;20520;-76
2021/01/22 17:47:26;;;;;;;31.13;29.27;;;6.80;99.90;;;;;;4914597;29;20465;-75
2021/01/22 17:49:53;;;;;;;27.60;26.30;;;6.80;99.90;;;;;;4914677;29;20454;-75
2021/01/22 17:52:19;;;;;;;30.40;28.60;;;6.70;99.90;;;;;;4914297;29;20782;-75
2021/01/22 17:54:45;;;;;;;30.53;29.03;;;6.70;99.90;;;;;;4913982;29;20450;-76
2021/01/22 17:57:11;;;;;;;30.20;28.60;;;6.80;99.90;;;;;;4913171;29;20466;-75
2021/01/22 17:59:37;;;;;;;27.83;26.43;;;6.80;99.90;;;;;;4912538;29;20446;-76
2021/01/22 18:02:04;;;;;;;27.23;25.90;;;6.80;99.90;;;;;;4912832;29;20451;-76
2021/01/22 18:04:31;;;;;;;29.20;27.80;;;6.80;99.90;;;;;;4912582;29;20517;-78
2021/01/22 18:06:57;;;;;;;27.10;25.90;;;6.80;99.90;;;;;;4913522;29;20461;-76
2021/01/22 18:09:26;;;;;;;28.23;26.80;;;6.70;99.90;;;;;;4913317;29;20854;-76
2021/01/22 18:11:52;;;;;;;27.30;26.00;;;6.50;99.90;;;;;;4913945;29;20540;-75
2021/01/22 18:14:19;;;;;;;27.87;26.13;;;6.50;99.90;;;;;;4914018;29;20450;-76